Time;durP1;ratioP1;P1;durP2;ratioP2;P2;SDS_P1;SDS_P2;PMS_P1;PMS_P2;Temp;Humidity;BMP_temperature;BMP_pressure;BME280_temperature;BME280_humidity;BME280_pressure;Samples;Min_cycle;Max_cycle;Signal;HPM_P1;HPM_P2
2023/02/06 00:01:47;;;;;;;1.83;0.80;;;7.20;96.70;;;;;;5061000;28;20056;-75
2023/02/06 00:04:16;;;;;;;1.58;0.70;;;7.20;96.70;;;;;;5060074;28;20068;-75
2023/02/06 00:06:44;;;;;;;2.50;0.65;;;7.20;96.70;;;;;;5051510;28;20106;-75
2023/02/06 00:09:13;;;;;;;2.72;0.90;;;7.20;96.70;;;;;;5044953;28;20045;-75
2023/02/06 00:11:41;;;;;;;3.15;1.20;;;7.10;96.70;;;;;;5064266;28;20059;-75
2023/02/06 00:14:10;;;;;;;2.17;0.70;;;7.20;96.70;;;;;;5062652;28;20052;-75
2023/02/06 00:16:38;;;;;;;3.03;0.80;;;7.10;96.70;;;;;;5054466;28;20041;-75
2023/02/06 00:19:08;;;;;;;1.38;0.60;;;7.10;96.70;;;;;;5060484;28;20615;-75
2023/02/06 00:21:37;;;;;;;2.80;0.63;;;7.10;96.70;;;;;;5058677;28;20456;-75
2023/02/06 00:24:05;;;;;;;2.03;0.60;;;7.00;96.70;;;;;;5056420;28;20079;-75
2023/02/06 00:26:34;;;;;;;2.22;0.70;;;7.00;96.70;;;;;;5060220;28;20052;-75
2023/02/06 00:29:02;;;;;;;0.98;0.60;;;7.00;96.70;;;;;;5063070;28;20045;-75
2023/02/06 00:31:30;;;;;;;2.83;0.77;;;7.00;96.70;;;;;;5062887;28;20047;-75
2023/02/06 00:33:59;;;;;;;1.42;0.73;;;7.00;96.70;;;;;;5043056;28;20460;-75
2023/02/06 00:36:29;;;;;;;2.05;0.77;;;7.00;96.70;;;;;;5054732;28;20041;-75
2023/02/06 00:38:57;;;;;;;1.25;0.40;;;6.90;96.70;;;;;;5048211;28;20049;-75
2023/02/06 00:41:25;;;;;;;2.42;0.68;;;7.00;96.70;;;;;;5062707;28;20049;-75
2023/02/06 00:43:54;;;;;;;2.45;0.60;;;7.00;96.70;;;;;;5053438;28;20048;-76
2023/02/06 00:46:23;;;;;;;2.83;0.68;;;7.00;96.70;;;;;;5062868;28;20425;-76
2023/02/06 00:48:52;;;;;;;1.05;0.63;;;7.00;96.70;;;;;;5059488;28;20052;-74
2023/02/06 00:51:20;;;;;;;2.53;0.60;;;6.90;96.70;;;;;;5044545;28;20056;-74
2023/02/06 00:53:50;;;;;;;3.63;0.55;;;7.00;96.70;;;;;;5029469;28;20068;-75
2023/02/06 00:56:19;;;;;;;2.35;0.70;;;6.90;96.70;;;;;;5056620;28;20491;-75
2023/02/06 00:58:47;;;;;;;0.88;0.50;;;7.00;96.70;;;;;;5057862;28;20144;-75
2023/02/06 01:01:16;;;;;;;2.42;0.70;;;6.90;96.70;;;;;;5062343;28;20343;-77
2023/02/06 01:03:45;;;;;;;1.42;0.50;;;7.00;96.70;;;;;;5041924;28;20419;-76
2023/02/06 01:06:13;;;;;;;1.42;0.50;;;6.90;96.70;;;;;;5045312;28;20075;-76
2023/02/06 01:08:42;;;;;;;2.58;0.80;;;6.90;96.70;;;;;;5050697;28;20068;-76
2023/02/06 01:11:13;;;;;;;2.13;0.60;;;6.90;96.70;;;;;;5063595;28;20037;-76
2023/02/06 01:13:42;;;;;;;2.10;0.60;;;6.90;96.70;;;;;;5056959;28;20524;-76
2023/02/06 01:16:12;;;;;;;1.63;0.70;;;6.90;96.70;;;;;;5050267;28;20040;-76
2023/02/06 01:18:41;;;;;;;1.17;0.50;;;6.90;96.70;;;;;;5045656;28;20037;-75
2023/02/06 01:21:11;;;;;;;4.13;0.90;;;6.90;96.70;;;;;;5049937;28;20040;-76
2023/02/06 01:23:41;;;;;;;1.73;0.60;;;6.90;96.70;;;;;;5063462;28;20174;-76
2023/02/06 01:26:13;;;;;;;1.27;0.50;;;6.90;96.70;;;;;;5051621;28;20495;-76
2023/02/06 01:28:44;;;;;;;1.40;0.47;;;6.90;96.70;;;;;;5046682;28;20044;-76
2023/02/06 01:31:16;;;;;;;1.20;0.60;;;6.90;96.70;;;;;;5059222;28;20056;-76
2023/02/06 01:33:46;;;;;;;1.40;0.60;;;6.70;96.70;;;;;;5054397;28;20040;-76
2023/02/06 01:36:16;;;;;;;2.13;0.90;;;6.70;96.70;;;;;;5056925;28;20051;-76
2023/02/06 01:38:45;;;;;;;2.03;0.82;;;6.70;96.70;;;;;;5050307;28;20502;-76
2023/02/06 01:41:16;;;;;;;3.08;0.82;;;6.70;96.70;;;;;;5057869;28;20041;-75
2023/02/06 01:43:45;;;;;;;1.30;0.68;;;6.70;96.70;;;;;;5046261;28;20088;-76
2023/02/06 01:46:13;;;;;;;2.47;0.75;;;6.70;96.70;;;;;;5053622;28;20595;-76
2023/02/06 01:48:46;;;;;;;1.75;0.80;;;6.80;96.70;;;;;;5070131;28;20055;-75
2023/02/06 01:51:16;;;;;;;1.60;0.80;;;6.80;96.70;;;;;;5057329;28;20108;-75
2023/02/06 01:53:48;;;;;;;1.50;0.65;;;6.80;96.70;;;;;;5083060;28;20202;-75
2023/02/06 01:56:20;;;;;;;3.03;0.90;;;6.80;96.70;;;;;;5053014;28;20142;-75
2023/02/06 01:58:51;;;;;;;2.28;1.00;;;6.80;96.70;;;;;;5052245;28;20106;-76
2023/02/06 02:01:21;;;;;;;2.10;0.77;;;6.70;96.70;;;;;;5043573;28;20106;-76
2023/02/06 02:03:51;;;;;;;1.30;0.63;;;6.60;96.70;;;;;;5071348;28;20048;-76
2023/02/06 02:06:23;;;;;;;0.95;0.60;;;6.70;96.70;;;;;;5063943;28;20068;-76
2023/02/06 02:08:55;;;;;;;2.30;1.00;;;6.70;96.70;;;;;;5079398;28;20051;-76
2023/02/06 02:11:30;;;;;;;2.97;0.82;;;6.60;96.70;;;;;;5056786;28;20056;-76
2023/02/06 02:14:00;;;;;;;3.67;1.00;;;6.60;96.70;;;;;;5062309;28;20133;-76
2023/02/06 02:16:39;;;;;;;1.00;0.68;;;6.60;96.70;;;;;;5055961;28;20064;-75
2023/02/06 02:19:52;;;;;;;2.25;0.80;;;6.60;96.70;;;;;;5050135;28;20044;-76
2023/02/06 02:22:49;;;;;;;1.67;0.60;;;6.60;96.70;;;;;;5064769;28;20539;-76
2023/02/06 02:25:50;;;;;;;1.58;0.60;;;6.60;96.70;;;;;;5051270;28;20040;-76
2023/02/06 02:29:02;;;;;;;1.85;0.80;;;6.60;96.70;;;;;;5052155;28;20556;-76
2023/02/06 02:32:12;;;;;;;2.15;0.57;;;6.60;96.70;;;;;;5062158;28;20062;-76
2023/02/06 02:35:16;;;;;;;2.30;0.80;;;6.60;96.70;;;;;;5063068;28;20044;-76
2023/02/06 02:38:01;;;;;;;1.10;0.63;;;6.50;96.70;;;;;;5054833;28;20044;-76
2023/02/06 02:40:37;;;;;;;1.35;0.60;;;6.50;96.70;;;;;;5039593;28;20525;-76
2023/02/06 02:43:13;;;;;;;1.75;0.60;;;6.50;96.70;;;;;;5060645;28;20580;-75
2023/02/06 02:45:45;;;;;;;1.15;0.40;;;6.50;96.70;;;;;;5059733;28;20048;-76
2023/02/06 02:48:17;;;;;;;0.98;0.47;;;6.50;96.70;;;;;;5058232;28;20056;-76
2023/02/06 02:50:49;;;;;;;2.13;0.85;;;6.50;96.70;;;;;;5036854;28;20073;-76
2023/02/06 02:53:18;;;;;;;1.25;0.70;;;6.50;96.70;;;;;;5054911;28;20460;-76
2023/02/06 02:55:46;;;;;;;1.60;0.55;;;6.50;96.70;;;;;;5050090;28;20815;-76
2023/02/06 02:58:18;;;;;;;2.33;0.63;;;6.60;96.70;;;;;;5041765;28;20053;-76
2023/02/06 03:00:53;;;;;;;1.30;0.60;;;6.50;96.70;;;;;;5059659;28;20083;-76
2023/02/06 03:03:24;;;;;;;2.22;0.52;;;6.50;96.70;;;;;;5055870;28;20078;-76
2023/02/06 03:06:13;;;;;;;3.50;0.60;;;6.50;96.70;;;;;;5031909;28;20052;-76
2023/02/06 03:08:48;;;;;;;2.58;0.50;;;6.50;96.70;;;;;;5042984;28;20060;-75
2023/02/06 03:11:19;;;;;;;0.85;0.47;;;6.40;96.70;;;;;;5056407;28;20080;-76
2023/02/06 03:13:52;;;;;;;2.13;0.60;;;6.40;96.70;;;;;;5061681;28;20136;-76
2023/02/06 03:16:25;;;;;;;1.42;0.60;;;6.40;96.70;;;;;;5058086;28;20033;-76
2023/02/06 03:18:59;;;;;;;1.05;0.40;;;6.40;96.70;;;;;;5061663;28;20044;-75
2023/02/06 03:21:30;;;;;;;2.58;0.50;;;6.50;96.70;;;;;;5038496;28;20048;-75
2023/02/06 03:24:02;;;;;;;2.22;0.68;;;6.40;96.70;;;;;;5045400;28;20044;-75
2023/02/06 03:26:32;;;;;;;1.20;0.60;;;6.40;96.70;;;;;;5046364;28;20052;-76
2023/02/06 03:29:03;;;;;;;2.47;0.93;;;6.40;96.70;;;;;;5058915;28;20049;-76
2023/02/06 03:31:34;;;;;;;1.25;0.50;;;6.40;96.70;;;;;;5048118;28;20041;-76
2023/02/06 03:34:09;;;;;;;1.23;0.60;;;6.40;96.70;;;;;;5056742;28;20075;-76
2023/02/06 03:36:39;;;;;;;1.92;0.80;;;6.40;96.70;;;;;;5053601;28;20071;-76
2023/02/06 03:39:07;;;;;;;1.95;0.68;;;6.40;96.70;;;;;;5054374;28;20553;-76
2023/02/06 03:41:37;;;;;;;1.73;0.65;;;6.30;96.70;;;;;;5060435;28;20707;-76
2023/02/06 03:44:09;;;;;;;1.35;0.73;;;6.40;96.70;;;;;;5060672;28;20045;-75
2023/02/06 03:46:40;;;;;;;1.05;0.57;;;6.40;96.70;;;;;;5038669;28;20041;-76
2023/02/06 03:49:13;;;;;;;1.02;0.52;;;6.40;96.70;;;;;;5058419;28;20703;-76
2023/02/06 03:51:47;;;;;;;1.95;0.40;;;6.40;96.70;;;;;;5061237;28;20048;-76
2023/02/06 03:54:18;;;;;;;0.85;0.45;;;6.40;96.70;;;;;;5038194;28;20040;-76
2023/02/06 03:56:51;;;;;;;2.20;0.70;;;6.30;96.70;;;;;;5049423;28;20674;-75
2023/02/06 03:59:20;;;;;;;1.58;0.50;;;6.40;96.70;;;;;;5056593;28;20056;-75
2023/02/06 04:01:51;;;;;;;1.73;0.50;;;6.40;96.70;;;;;;5060742;28;20563;-76
2023/02/06 04:04:27;;;;;;;1.42;0.50;;;6.40;96.70;;;;;;5079816;28;20041;-76
2023/02/06 04:07:01;;;;;;;0.82;0.50;;;6.40;96.70;;;;;;5054018;28;20694;-76
2023/02/06 04:09:29;;;;;;;1.60;0.65;;;6.40;96.70;;;;;;5059012;28;20170;-76
2023/02/06 04:11:56;;;;;;;1.25;0.60;;;6.40;96.70;;;;;;5056722;28;20446;-76
2023/02/06 04:14:24;;;;;;;1.05;0.50;;;6.30;96.70;;;;;;5042383;28;20146;-74
2023/02/06 04:16:52;;;;;;;1.52;0.50;;;6.40;96.70;;;;;;5064812;28;20049;-76
2023/02/06 04:19:20;;;;;;;1.15;0.50;;;6.30;96.70;;;;;;5054769;28;20036;-76
2023/02/06 04:21:48;;;;;;;1.05;0.65;;;6.40;96.70;;;;;;5059460;28;20040;-76
2023/02/06 04:24:18;;;;;;;1.52;0.60;;;6.40;96.70;;;;;;5064580;28;20678;-75
2023/02/06 04:26:46;;;;;;;2.30;0.65;;;6.30;96.70;;;;;;5063004;28;20068;-76
2023/02/06 04:29:14;;;;;;;0.90;0.52;;;6.30;96.70;;;;;;5059348;28;20064;-76
2023/02/06 04:31:42;;;;;;;1.70;0.73;;;6.30;96.70;;;;;;5052457;28;20068;-76
2023/02/06 04:34:10;;;;;;;1.38;0.65;;;6.30;96.70;;;;;;5062646;28;20410;-75
2023/02/06 04:36:38;;;;;;;2.38;0.80;;;6.30;96.70;;;;;;5055083;28;20037;-76
2023/02/06 04:39:06;;;;;;;1.17;0.57;;;6.30;96.70;;;;;;5057603;28;20049;-74
2023/02/06 04:41:36;;;;;;;1.50;0.82;;;6.30;96.70;;;;;;5063766;28;20044;-75
2023/02/06 04:44:04;;;;;;;2.55;0.70;;;6.30;96.70;;;;;;5057391;28;20132;-76
2023/02/06 04:46:32;;;;;;;1.50;0.60;;;6.30;96.70;;;;;;5044457;28;20114;-75
2023/02/06 04:49:00;;;;;;;1.35;0.70;;;6.20;96.70;;;;;;5052005;28;20079;-75
2023/02/06 04:51:28;;;;;;;1.33;0.57;;;6.20;96.70;;;;;;5053524;28;20083;-76
2023/02/06 04:53:56;;;;;;;1.25;0.60;;;6.20;96.70;;;;;;5036804;28;20049;-76
2023/02/06 04:56:24;;;;;;;2.70;1.10;;;6.20;96.70;;;;;;5053460;28;20047;-75
2023/02/06 04:58:54;;;;;;;2.33;0.50;;;6.20;96.70;;;;;;5058675;28;20072;-76
2023/02/06 05:01:22;;;;;;;1.65;0.70;;;6.20;96.70;;;;;;5050533;28;20391;-76
2023/02/06 05:03:50;;;;;;;2.35;0.82;;;6.20;96.70;;;;;;5042892;28;20159;-76
2023/02/06 05:06:18;;;;;;;1.38;0.70;;;6.20;96.70;;;;;;5059883;28;20464;-76
2023/02/06 05:08:46;;;;;;;2.03;0.80;;;6.20;96.70;;;;;;5062258;28;20040;-75
2023/02/06 05:11:14;;;;;;;3.28;1.13;;;6.20;96.70;;;;;;5063155;28;20147;-76
2023/02/06 05:13:42;;;;;;;1.55;0.80;;;6.20;96.70;;;;;;5063500;28;20529;-76
2023/02/06 05:16:13;;;;;;;1.33;0.70;;;6.20;96.70;;;;;;5062669;28;20052;-76
2023/02/06 05:18:45;;;;;;;1.00;0.55;;;6.20;96.70;;;;;;5051741;28;20417;-76
2023/02/06 05:21:14;;;;;;;2.00;0.82;;;6.20;96.70;;;;;;5054811;28;20052;-76
2023/02/06 05:23:42;;;;;;;2.22;0.90;;;6.20;96.70;;;;;;5048954;28;20488;-75
2023/02/06 05:26:09;;;;;;;2.60;0.70;;;6.20;96.70;;;;;;5061928;28;20410;-76
2023/02/06 05:28:37;;;;;;;1.13;0.70;;;6.20;96.70;;;;;;5049801;28;20044;-76
2023/02/06 05:31:06;;;;;;;1.90;0.63;;;6.20;96.70;;;;;;5054569;28;20059;-75
2023/02/06 05:33:35;;;;;;;1.45;0.82;;;6.20;96.70;;;;;;5060719;28;20037;-76
2023/02/06 05:36:05;;;;;;;1.13;0.70;;;6.20;96.70;;;;;;5059308;28;20471;-75
2023/02/06 05:38:33;;;;;;;2.67;0.80;;;6.20;96.70;;;;;;5056776;28;20048;-75
2023/02/06 05:41:02;;;;;;;1.98;0.95;;;6.20;96.70;;;;;;5054023;28;20040;-76
2023/02/06 05:43:30;;;;;;;1.52;0.90;;;6.10;96.70;;;;;;5052675;28;20713;-75
2023/02/06 05:45:58;;;;;;;2.15;0.98;;;6.10;96.70;;;;;;5041089;28;20095;-76
2023/02/06 05:48:29;;;;;;;1.25;0.80;;;6.00;96.70;;;;;;5059428;28;20565;-76
2023/02/06 05:50:58;;;;;;;1.50;1.02;;;6.00;96.70;;;;;;5046713;28;20045;-75
2023/02/06 05:53:26;;;;;;;2.63;1.25;;;6.10;96.70;;;;;;5062565;28;20044;-76
2023/02/06 05:55:54;;;;;;;1.63;0.80;;;6.10;96.70;;;;;;5053460;28;20064;-76
2023/02/06 05:58:23;;;;;;;3.85;0.95;;;6.10;96.70;;;;;;5054954;28;20044;-75
2023/02/06 06:00:50;;;;;;;3.35;1.02;;;6.00;96.70;;;;;;5049258;28;20041;-75
2023/02/06 06:03:18;;;;;;;1.13;0.60;;;6.00;96.70;;;;;;5049646;28;20048;-75
2023/02/06 06:05:46;;;;;;;1.55;0.80;;;6.00;96.70;;;;;;5060770;28;20056;-76
2023/02/06 06:08:16;;;;;;;1.52;0.85;;;6.00;96.70;;;;;;5056796;28;20078;-75
2023/02/06 06:10:44;;;;;;;1.73;0.80;;;6.00;96.70;;;;;;5061071;28;20429;-76
2023/02/06 06:13:12;;;;;;;2.67;1.23;;;6.00;96.70;;;;;;5058107;28;20620;-76
2023/02/06 06:15:40;;;;;;;2.83;1.05;;;6.00;96.70;;;;;;5054106;28;20189;-75
2023/02/06 06:18:08;;;;;;;5.93;1.58;;;6.00;96.70;;;;;;5047710;28;20056;-76
2023/02/06 06:20:36;;;;;;;5.57;1.10;;;5.90;96.70;;;;;;5055368;28;20722;-76
2023/02/06 06:23:04;;;;;;;2.28;0.95;;;5.90;96.70;;;;;;5050863;28;20047;-75
2023/02/06 06:25:34;;;;;;;1.40;0.77;;;5.90;96.70;;;;;;5062533;28;20071;-75
2023/02/06 06:28:03;;;;;;;2.67;1.02;;;5.90;96.70;;;;;;5059675;28;20123;-76
2023/02/06 06:30:31;;;;;;;1.50;0.80;;;5.90;96.70;;;;;;5044271;28;20948;-76
2023/02/06 06:33:02;;;;;;;1.65;0.70;;;5.90;96.70;;;;;;5056695;28;20056;-76
2023/02/06 06:35:30;;;;;;;4.93;1.00;;;5.80;96.70;;;;;;5061176;28;20045;-75
2023/02/06 06:37:58;;;;;;;3.15;0.80;;;5.80;96.70;;;;;;5058583;28;20052;-76
2023/02/06 06:40:26;;;;;;;3.22;0.95;;;5.80;96.70;;;;;;5057224;28;20601;-76
2023/02/06 06:42:55;;;;;;;1.92;0.98;;;5.80;96.70;;;;;;5051947;28;20041;-75
2023/02/06 06:45:23;;;;;;;4.00;1.05;;;5.80;96.70;;;;;;5050462;28;20123;-76
2023/02/06 06:47:51;;;;;;;2.22;0.90;;;5.80;96.70;;;;;;5055972;28;20044;-75
2023/02/06 06:50:19;;;;;;;3.03;1.20;;;5.80;96.70;;;;;;5063159;28;20097;-75
2023/02/06 06:52:47;;;;;;;2.72;0.82;;;5.90;96.70;;;;;;5059906;28;20066;-75
2023/02/06 06:55:15;;;;;;;2.10;0.82;;;5.90;96.70;;;;;;5046371;28;20348;-76
2023/02/06 06:57:43;;;;;;;3.05;1.10;;;5.90;96.70;;;;;;5050083;28;20753;-75
2023/02/06 07:00:14;;;;;;;2.40;1.00;;;5.80;96.70;;;;;;5064153;28;20239;-75
2023/02/06 07:02:42;;;;;;;2.70;0.90;;;5.90;96.70;;;;;;5061020;28;20044;-75
2023/02/06 07:05:10;;;;;;;3.85;1.00;;;5.90;96.70;;;;;;5076923;28;20075;-75
2023/02/06 07:07:39;;;;;;;3.65;0.95;;;5.90;96.70;;;;;;5053677;28;20580;-75
2023/02/06 07:10:08;;;;;;;3.25;0.90;;;5.90;96.70;;;;;;5061738;28;20040;-75
2023/02/06 07:12:36;;;;;;;1.95;0.88;;;5.90;96.70;;;;;;5044862;28;20075;-75
2023/02/06 07:15:05;;;;;;;3.15;0.95;;;5.90;96.70;;;;;;5070185;28;20040;-75
2023/02/06 07:17:35;;;;;;;2.08;0.73;;;6.00;96.70;;;;;;5045999;28;20566;-75
2023/02/06 07:20:04;;;;;;;1.85;0.82;;;6.00;96.70;;;;;;5049439;28;20115;-75
2023/02/06 07:22:32;;;;;;;1.98;0.80;;;6.00;96.70;;;;;;5066314;28;20127;-74
2023/02/06 07:25:00;;;;;;;2.60;0.98;;;6.00;96.70;;;;;;5066443;28;20049;-75
2023/02/06 07:27:28;;;;;;;2.92;1.00;;;6.00;96.70;;;;;;5063852;28;20060;-76
2023/02/06 07:29:56;;;;;;;1.73;0.80;;;6.00;96.70;;;;;;5059608;28;20653;-76
2023/02/06 07:32:24;;;;;;;6.03;1.08;;;6.10;96.70;;;;;;5049224;28;20095;-75
2023/02/06 07:34:53;;;;;;;1.77;0.82;;;6.10;96.70;;;;;;5055593;28;20055;-76
2023/02/06 07:37:21;;;;;;;2.05;0.60;;;6.10;96.70;;;;;;5067772;28;20048;-76
2023/02/06 07:39:50;;;;;;;2.03;0.80;;;6.20;96.70;;;;;;5050999;28;20477;-76
2023/02/06 07:42:18;;;;;;;1.92;0.68;;;6.20;96.70;;;;;;5057528;28;20494;-76
2023/02/06 07:44:53;;;;;;;2.70;0.80;;;6.30;96.70;;;;;;5043177;28;20135;-75
2023/02/06 07:47:21;;;;;;;0.98;0.60;;;6.30;96.70;;;;;;5059449;28;20068;-78
2023/02/06 07:49:49;;;;;;;2.45;0.88;;;6.40;96.70;;;;;;5053864;28;20631;-81
2023/02/06 07:52:20;;;;;;;1.48;0.68;;;6.40;96.70;;;;;;5044055;28;20044;-80
2023/02/06 07:54:49;;;;;;;2.95;0.55;;;6.40;96.70;;;;;;5038550;28;20041;-85
2023/02/06 07:57:17;;;;;;;1.10;0.50;;;6.40;96.70;;;;;;5053125;28;20040;-82
2023/02/06 07:59:47;;;;;;;1.73;0.73;;;6.40;96.70;;;;;;5070908;28;20067;-84
2023/02/06 08:02:15;;;;;;;1.63;0.70;;;6.40;96.70;;;;;;5052932;28;20052;-82
2023/02/06 08:04:43;;;;;;;3.45;0.80;;;6.50;96.70;;;;;;5052235;28;20033;-83
2023/02/06 08:07:13;;;;;;;1.73;0.77;;;6.50;96.70;;;;;;5060170;28;20071;-83
2023/02/06 08:09:43;;;;;;;3.15;0.70;;;6.50;96.70;;;;;;5066099;28;20048;-82
2023/02/06 08:12:11;;;;;;;1.90;0.82;;;6.50;96.70;;;;;;5076986;28;20040;-84
2023/02/06 08:14:38;;;;;;;4.55;0.60;;;6.50;96.70;;;;;;5053529;28;20068;-81
2023/02/06 08:17:06;;;;;;;4.57;0.85;;;6.60;96.70;;;;;;5070115;28;20041;-80
2023/02/06 08:19:34;;;;;;;1.85;0.68;;;6.60;96.70;;;;;;5061948;28;20056;-79
2023/02/06 08:22:02;;;;;;;1.98;0.80;;;6.60;96.70;;;;;;5066333;28;20110;-79
2023/02/06 08:24:30;;;;;;;1.15;0.70;;;6.60;96.70;;;;;;5083784;28;20535;-82
2023/02/06 08:26:59;;;;;;;4.45;1.00;;;6.60;96.70;;;;;;5062415;28;20437;-81
2023/02/06 08:29:27;;;;;;;1.95;0.90;;;6.60;96.70;;;;;;5085605;28;20071;-81
2023/02/06 08:31:55;;;;;;;4.13;0.50;;;6.70;96.70;;;;;;5061168;28;20048;-81
2023/02/06 08:34:23;;;;;;;3.13;0.63;;;6.70;96.70;;;;;;5088325;28;20101;-81
2023/02/06 08:36:51;;;;;;;3.47;0.70;;;6.80;96.70;;;;;;5078446;28;20070;-80
2023/02/06 08:39:19;;;;;;;1.27;0.70;;;6.80;96.70;;;;;;5077651;28;20151;-80
2023/02/06 08:41:47;;;;;;;1.73;0.50;;;6.80;96.70;;;;;;5051108;28;20064;-80
2023/02/06 08:44:17;;;;;;;2.70;1.13;;;6.80;96.70;;;;;;5054003;28;20062;-80
2023/02/06 08:46:46;;;;;;;2.72;0.60;;;6.80;96.70;;;;;;5066745;28;20036;-81
2023/02/06 08:49:17;;;;;;;2.65;0.70;;;6.80;96.70;;;;;;5051072;28;20052;-79
2023/02/06 08:51:46;;;;;;;2.80;0.68;;;6.90;96.70;;;;;;5053836;28;20045;-78
2023/02/06 08:54:15;;;;;;;2.15;0.65;;;6.90;96.70;;;;;;5069070;28;20047;-75
2023/02/06 08:56:44;;;;;;;3.58;0.73;;;6.90;96.70;;;;;;5048178;28;20097;-73
2023/02/06 08:59:13;;;;;;;2.20;0.60;;;7.00;96.70;;;;;;5078223;28;20114;-74
2023/02/06 09:01:44;;;;;;;3.83;0.80;;;7.00;96.70;;;;;;5059427;28;20790;-75
2023/02/06 09:04:13;;;;;;;1.23;0.60;;;7.00;96.70;;;;;;5057984;28;20083;-74
2023/02/06 09:06:43;;;;;;;2.53;0.95;;;7.00;96.70;;;;;;5056699;28;20448;-74
2023/02/06 09:09:11;;;;;;;2.05;0.70;;;7.00;96.70;;;;;;5071760;28;20370;-74
2023/02/06 09:11:39;;;;;;;1.42;0.65;;;7.10;96.70;;;;;;5078726;28;20052;-73
2023/02/06 09:14:11;;;;;;;1.88;0.70;;;7.10;96.70;;;;;;5058482;28;20054;-73
2023/02/06 09:16:39;;;;;;;2.15;0.80;;;7.20;96.70;;;;;;5054861;28;20135;-74
2023/02/06 09:19:09;;;;;;;2.35;0.70;;;7.30;96.70;;;;;;5056287;28;20052;-77
2023/02/06 09:21:37;;;;;;;2.72;0.65;;;7.30;96.70;;;;;;5067637;28;20036;-73
2023/02/06 09:24:07;;;;;;;2.55;0.80;;;7.40;96.70;;;;;;5061195;28;20044;-73
2023/02/06 09:26:37;;;;;;;5.32;1.00;;;7.50;96.70;;;;;;5053080;28;20055;-74
2023/02/06 09:29:23;;;;;;;2.42;0.88;;;7.50;96.70;;;;;;5075966;28;20044;-75
2023/02/06 09:31:51;;;;;;;1.35;0.70;;;7.60;96.70;;;;;;5063110;28;20040;-74
2023/02/06 09:34:23;;;;;;;1.38;0.70;;;7.70;96.70;;;;;;5083044;28;20075;-75
2023/02/06 09:36:53;;;;;;;2.42;0.82;;;7.80;96.70;;;;;;5065767;28;20652;-76
2023/02/06 09:39:21;;;;;;;4.60;1.60;;;7.90;96.70;;;;;;5080133;28;20759;-77
2023/02/06 09:41:52;;;;;;;4.05;1.77;;;8.00;96.70;;;;;;5059226;28;20048;-76
2023/02/06 09:44:26;;;;;;;4.00;0.90;;;8.10;96.70;;;;;;5062105;28;20048;-79
2023/02/06 09:47:00;;;;;;;5.00;0.95;;;8.00;96.70;;;;;;5071179;28;20826;-83
2023/02/06 09:49:36;;;;;;;4.05;1.15;;;8.20;96.70;;;;;;5079992;28;20057;-81
2023/02/06 09:52:28;;;;;;;3.67;1.00;;;8.30;96.70;;;;;;5079739;28;20097;-74
2023/02/06 09:55:05;;;;;;;2.38;0.70;;;8.30;96.70;;;;;;5040819;28;20583;-74
2023/02/06 09:57:40;;;;;;;3.15;0.90;;;8.40;96.70;;;;;;5045799;28;20066;-78
2023/02/06 10:00:25;;;;;;;1.55;0.80;;;8.20;96.70;;;;;;5061456;28;20397;-74
2023/02/06 10:03:10;;;;;;;1.83;0.80;;;8.00;96.70;;;;;;5056936;28;20048;-75
2023/02/06 10:05:48;;;;;;;3.38;0.80;;;7.90;96.70;;;;;;5082876;28;20072;-73
2023/02/06 10:08:24;;;;;;;3.90;0.98;;;7.80;96.70;;;;;;5064190;28;20040;-74
2023/02/06 10:10:54;;;;;;;2.55;0.80;;;7.70;96.70;;;;;;5082879;28;21012;-74
2023/02/06 10:13:29;;;;;;;2.15;0.80;;;7.60;96.70;;;;;;5059184;28;20044;-73
2023/02/06 10:16:00;;;;;;;3.00;0.90;;;7.60;96.70;;;;;;5063006;28;20051;-74
2023/02/06 10:18:35;;;;;;;1.95;0.80;;;7.60;96.70;;;;;;5082331;28;20509;-74
2023/02/06 10:21:24;;;;;;;2.58;1.15;;;7.80;96.70;;;;;;5080307;28;20040;-75
2023/02/06 10:23:59;;;;;;;2.47;1.05;;;8.10;96.70;;;;;;5063063;28;20087;-76
2023/02/06 10:26:28;;;;;;;2.03;0.73;;;8.40;96.70;;;;;;5047884;28;20044;-74
2023/02/06 10:28:58;;;;;;;2.75;0.80;;;8.60;96.70;;;;;;5060290;28;20040;-76
2023/02/06 10:31:43;;;;;;;1.23;0.73;;;8.70;96.70;;;;;;5064621;28;20048;-75
2023/02/06 10:34:25;;;;;;;3.35;1.10;;;8.80;96.70;;;;;;5081410;28;20048;-76
2023/02/06 10:37:09;;;;;;;2.58;0.98;;;8.90;96.70;;;;;;5052027;28;20052;-76
2023/02/06 10:40:01;;;;;;;1.88;0.98;;;8.90;96.70;;;;;;5080381;28;20539;-75
2023/02/06 10:42:42;;;;;;;2.22;1.40;;;9.10;96.70;;;;;;5053949;28;20092;-73
2023/02/06 10:45:22;;;;;;;5.70;2.75;;;9.30;96.70;;;;;;5081735;28;20048;-73
2023/02/06 10:47:54;;;;;;;3.13;1.42;;;9.30;96.70;;;;;;5081183;28;20052;-75
2023/02/06 10:50:30;;;;;;;2.75;1.20;;;9.40;96.70;;;;;;5078019;28;20532;-75
2023/02/06 10:53:03;;;;;;;2.42;1.30;;;9.40;96.70;;;;;;5064159;28;20117;-74
2023/02/06 10:55:39;;;;;;;2.00;0.73;;;9.40;96.70;;;;;;5077348;28;20055;-74
2023/02/06 10:58:12;;;;;;;;;;;9.30;96.70;;;;;;5064545;28;20516;-74
2023/02/06 11:00:42;;;;;;;3.13;0.90;;;9.40;96.70;;;;;;5082594;28;19924;-74
2023/02/06 11:03:14;;;;;;;2.72;1.20;;;9.40;96.70;;;;;;5068275;28;20041;-76
2023/02/06 11:05:42;;;;;;;2.45;1.05;;;9.40;96.70;;;;;;5076435;28;20048;-75
2023/02/06 11:08:18;;;;;;;4.53;1.02;;;9.50;96.70;;;;;;5046549;28;20040;-75
2023/02/06 11:10:47;;;;;;;2.47;1.23;;;9.60;96.70;;;;;;5051105;28;20047;-76
2023/02/06 11:13:22;;;;;;;4.50;1.33;;;9.60;96.70;;;;;;5063715;28;20036;-76
2023/02/06 11:15:59;;;;;;;2.50;1.08;;;9.60;96.70;;;;;;5066406;28;20048;-75
2023/02/06 11:18:30;;;;;;;7.32;2.45;;;9.80;96.70;;;;;;5064770;28;20044;-76
2023/02/06 11:20:59;;;;;;;2.97;0.90;;;9.80;96.70;;;;;;5082194;28;20093;-75
2023/02/06 11:23:29;;;;;;;2.38;0.93;;;9.90;96.70;;;;;;5041631;28;20040;-76
2023/02/06 11:26:06;;;;;;;1.38;0.70;;;9.90;96.70;;;;;;5051913;28;20570;-74
2023/02/06 11:28:37;;;;;;;2.15;0.90;;;10.00;96.70;;;;;;5053039;28;20090;-74
2023/02/06 11:31:08;;;;;;;2.35;0.88;;;10.10;96.70;;;;;;5066712;28;20043;-74
2023/02/06 11:33:40;;;;;;;3.60;0.73;;;10.20;96.70;;;;;;5067804;28;20105;-75
2023/02/06 11:36:25;;;;;;;2.22;0.82;;;10.30;96.70;;;;;;5063686;28;20037;-74
2023/02/06 11:38:57;;;;;;;3.28;0.95;;;10.40;96.70;;;;;;5080600;28;20105;-74
2023/02/06 11:41:26;;;;;;;1.10;0.60;;;10.50;96.70;;;;;;5062771;28;20044;-74
2023/02/06 11:44:01;;;;;;;1.85;1.20;;;10.60;96.70;;;;;;5085668;28;20123;-74
2023/02/06 11:46:31;;;;;;;2.47;1.38;;;10.60;96.70;;;;;;5082266;28;20051;-74
2023/02/06 11:49:18;;;;;;;5.88;1.75;;;10.70;96.70;;;;;;5085050;28;20704;-74
2023/02/06 11:51:50;;;;;;;2.28;1.00;;;10.80;96.70;;;;;;5078403;28;20071;-74
2023/02/06 11:54:23;;;;;;;1.98;1.27;;;10.80;96.70;;;;;;5085297;28;20165;-73
2023/02/06 11:57:03;;;;;;;3.38;1.35;;;10.80;96.70;;;;;;5085774;28;20044;-74
2023/02/06 11:59:33;;;;;;;2.78;1.15;;;10.90;96.70;;;;;;5058622;28;20048;-74
2023/02/06 12:02:05;;;;;;;2.78;1.20;;;11.00;96.70;;;;;;5085261;28;20044;-73
2023/02/06 12:04:36;;;;;;;3.25;1.58;;;11.10;96.70;;;;;;5066877;28;20143;-74
2023/02/06 12:07:14;;;;;;;3.00;1.20;;;11.10;96.70;;;;;;5079456;28;20132;-74
2023/02/06 12:09:44;;;;;;;3.45;1.70;;;11.20;96.70;;;;;;5070164;28;20047;-74
2023/02/06 12:12:27;;;;;;;4.30;1.88;;;11.30;96.70;;;;;;5067002;28;20052;-74
2023/02/06 12:14:59;;;;;;;3.45;1.58;;;11.10;96.70;;;;;;5062196;28;20467;-74
2023/02/06 12:17:54;;;;;;;2.47;1.48;;;11.00;96.70;;;;;;5071150;28;20048;-74
2023/02/06 12:20:26;;;;;;;4.82;1.83;;;10.90;96.70;;;;;;5065037;28;20052;-71
2023/02/06 12:23:00;;;;;;;3.85;1.38;;;10.90;96.70;;;;;;5085036;28;20123;-71
2023/02/06 12:25:34;;;;;;;2.80;1.45;;;10.80;96.70;;;;;;5066473;28;20138;-72
2023/02/06 12:28:09;;;;;;;3.15;1.40;;;10.90;96.70;;;;;;5084880;28;20043;-71
2023/02/06 12:30:40;;;;;;;3.25;1.15;;;11.10;96.70;;;;;;5067037;28;20132;-72
2023/02/06 12:33:14;;;;;;;4.57;1.55;;;11.30;96.70;;;;;;5083187;28;20070;-71
2023/02/06 12:35:47;;;;;;;4.90;1.25;;;11.30;96.70;;;;;;5074894;28;20048;-71
2023/02/06 12:38:24;;;;;;;1.98;1.30;;;11.20;96.70;;;;;;5078719;28;20085;-70
2023/02/06 12:41:07;;;;;;;3.03;0.98;;;11.20;96.70;;;;;;5084611;28;20040;-71
2023/02/06 12:43:39;;;;;;;2.33;1.10;;;11.20;96.70;;;;;;5084627;28;20040;-71
2023/02/06 12:46:12;;;;;;;3.08;1.50;;;11.30;96.70;;;;;;5066995;28;20481;-71
2023/02/06 12:48:49;;;;;;;3.28;1.40;;;11.30;96.70;;;;;;5080071;28;20056;-71
2023/02/06 12:51:23;;;;;;;4.45;1.80;;;11.40;96.70;;;;;;5060335;28;20048;-71
2023/02/06 12:53:56;;;;;;;2.95;1.50;;;11.40;96.70;;;;;;5066046;28;20044;-70
2023/02/06 12:56:33;;;;;;;2.55;1.17;;;11.50;96.70;;;;;;5084316;28;20072;-70
2023/02/06 12:59:17;;;;;;;3.30;1.75;;;11.50;96.70;;;;;;5066987;28;20076;-70
2023/02/06 13:01:54;;;;;;;5.90;1.63;;;11.50;96.70;;;;;;5082277;28;20948;-71
2023/02/06 13:04:25;;;;;;;4.68;3.08;;;11.60;96.70;;;;;;5054330;28;20121;-70
2023/02/06 13:06:57;;;;;;;2.60;1.35;;;11.50;96.70;;;;;;5047179;28;20045;-70
2023/02/06 13:09:28;;;;;;;3.33;1.60;;;11.60;96.70;;;;;;5059527;28;20046;-72
2023/02/06 13:12:12;;;;;;;3.00;1.30;;;11.60;96.70;;;;;;5062786;28;20502;-72
2023/02/06 13:14:46;;;;;;;2.75;1.20;;;11.70;96.70;;;;;;5074025;28;20052;-72
2023/02/06 13:17:18;;;;;;;2.63;1.08;;;11.70;96.70;;;;;;5058135;28;20418;-71
2023/02/06 13:19:58;;;;;;;1.73;0.98;;;11.70;96.70;;;;;;5080967;28;20101;-72